Time;durP1;ratioP1;P1;durP2;ratioP2;P2;SDS_P1;SDS_P2;PMS_P1;PMS_P2;Temp;Humidity;BMP_temperature;BMP_pressure;BME280_temperature;BME280_humidity;BME280_pressure;Samples;Min_cycle;Max_cycle;Signal;HPM_P1;HPM_P2
2022/11/16 00:01:40;;;;;;;2.30;2.10;;;;;;;;;;4951681;28;20197;-78
2022/11/16 00:04:05;;;;;;;2.53;2.33;;;;;;;;;;4953562;28;20186;-78
2022/11/16 00:06:31;;;;;;;2.90;2.30;;;;;;;;;;4949629;28;20197;-78
2022/11/16 00:11:41;;;;;;;2.93;2.63;;;;;;;;;;4953084;28;20208;-78
2022/11/16 00:14:07;;;;;;;3.13;2.57;;;;;;;;;;4953376;28;20505;-78
2022/11/16 00:16:32;;;;;;;2.70;2.00;;;;;;;;;;4949320;28;20183;-78
2022/11/16 00:18:59;;;;;;;3.83;2.00;;;;;;;;;;4952205;28;20184;-78
2022/11/16 00:21:24;;;;;;;2.40;2.10;;;;;;;;;;4957255;28;20189;-79
2022/11/16 00:23:50;;;;;;;2.90;2.13;;;;;;;;;;4955351;28;20196;-78
2022/11/16 00:26:15;;;;;;;2.90;2.60;;;;;;;;;;4953690;28;20177;-78
2022/11/16 00:28:40;;;;;;;2.57;2.37;;;;;;;;;;4951415;28;20244;-78
2022/11/16 00:31:06;;;;;;;2.97;2.23;;;;;;;;;;4951216;28;20215;-78
2022/11/16 00:33:31;;;;;;;2.53;2.33;;;;;;;;;;4951713;28;20193;-78
2022/11/16 00:35:59;;;;;;;3.00;2.70;;;;;;;;;;4969113;28;20203;-78
2022/11/16 00:38:24;;;;;;;3.53;2.43;;;;;;;;;;4968014;28;20191;-78
2022/11/16 00:40:49;;;;;;;2.50;2.30;;;;;;;;;;4951343;28;20185;-78
2022/11/16 00:43:14;;;;;;;4.00;3.27;;;;;;;;;;4953285;28;20189;-78
2022/11/16 00:45:41;;;;;;;3.20;2.70;;;;;;;;;;4954917;28;20205;-78
2022/11/16 00:48:06;;;;;;;7.10;3.50;;;;;;;;;;4951210;28;20238;-79
2022/11/16 00:50:31;;;;;;;4.47;3.40;;;;;;;;;;4950630;28;20278;-79
2022/11/16 00:52:56;;;;;;;4.40;3.60;;;;;;;;;;4953073;28;20184;-79
2022/11/16 00:55:22;;;;;;;3.90;3.37;;;;;;;;;;4949169;28;20178;-78
2022/11/16 00:57:47;;;;;;;3.67;3.23;;;;;;;;;;4949607;28;20192;-79
2022/11/16 01:00:12;;;;;;;4.50;3.30;;;;;;;;;;4951076;28;20208;-78
2022/11/16 01:02:39;;;;;;;3.57;3.10;;;;;;;;;;4953208;28;20185;-78
2022/11/16 01:05:05;;;;;;;3.43;3.13;;;;;;;;;;4956142;28;20283;-79
2022/11/16 01:07:30;;;;;;;3.60;3.20;;;;;;;;;;4971384;28;20320;-78
2022/11/16 01:09:55;;;;;;;3.60;3.30;;;;;;;;;;4955176;28;20260;-78
2022/11/16 01:12:20;;;;;;;4.27;3.23;;;;;;;;;;4953332;28;20192;-79
2022/11/16 01:14:46;;;;;;;3.77;3.13;;;;;;;;;;4955774;28;20295;-78
2022/11/16 01:17:12;;;;;;;4.17;3.10;;;;;;;;;;4955020;28;20181;-79
2022/11/16 01:19:37;;;;;;;4.07;3.10;;;;;;;;;;4960214;28;20197;-78
2022/11/16 01:22:02;;;;;;;4.13;3.07;;;;;;;;;;4969253;28;20189;-79
2022/11/16 01:24:27;;;;;;;3.67;3.13;;;;;;;;;;4954958;28;20173;-79
2022/11/16 01:26:57;;;;;;;3.53;3.23;;;;;;;;;;4956659;28;20212;-78
2022/11/16 01:29:26;;;;;;;4.50;3.30;;;;;;;;;;4954904;28;20225;-78
2022/11/16 01:31:51;;;;;;;5.13;3.43;;;;;;;;;;4952885;28;20189;-78
2022/11/16 01:34:17;;;;;;;6.73;4.20;;;;;;;;;;4957531;28;20228;-78
2022/11/16 01:36:42;;;;;;;3.90;3.43;;;;;;;;;;4953561;28;20283;-79
2022/11/16 01:39:07;;;;;;;5.20;3.57;;;;;;;;;;4972426;28;20193;-79
2022/11/16 01:41:32;;;;;;;4.30;3.60;;;;;;;;;;4954692;28;20178;-78
2022/11/16 01:44:03;;;;;;;6.53;4.13;;;;;;;;;;4972606;28;20272;-78
2022/11/16 01:46:28;;;;;;;4.50;4.10;;;;;;;;;;4953872;28;20186;-79
2022/11/16 01:49:00;;;;;;;4.77;4.07;;;;;;;;;;4953456;28;20282;-78
2022/11/16 01:51:26;;;;;;;4.87;4.43;;;;;;;;;;4953725;28;20245;-78
2022/11/16 01:53:52;;;;;;;5.10;4.60;;;;;;;;;;4950745;28;20349;-78
2022/11/16 01:56:17;;;;;;;5.20;4.70;;;;;;;;;;4955662;28;20185;-78
2022/11/16 01:58:43;;;;;;;7.57;4.23;;;;;;;;;;4954176;28;20188;-78
2022/11/16 02:01:08;;;;;;;4.37;3.97;;;;;;;;;;4954039;28;20177;-78
2022/11/16 02:03:35;;;;;;;4.57;4.07;;;;;;;;;;4952864;28;20192;-78
2022/11/16 02:06:03;;;;;;;5.80;4.30;;;;;;;;;;4953673;28;20181;-78
2022/11/16 02:11:26;;;;;;;6.23;4.53;;;;;;;;;;4957717;28;20200;-78
2022/11/16 02:13:59;;;;;;;5.63;4.20;;;;;;;;;;4967828;28;20240;-78
2022/11/16 02:16:24;;;;;;;3.90;3.50;;;;;;;;;;4955269;28;20228;-78
2022/11/16 02:18:54;;;;;;;4.63;4.10;;;;;;;;;;4953550;28;20197;-78
2022/11/16 02:21:25;;;;;;;4.57;4.13;;;;;;;;;;4957136;28;20212;-78
2022/11/16 02:24:09;;;;;;;4.07;3.77;;;;;;;;;;4953013;28;20193;-78
2022/11/16 02:26:54;;;;;;;4.60;4.13;;;;;;;;;;4950786;28;20178;-78
2022/11/16 02:29:42;;;;;;;3.93;3.60;;;;;;;;;;4968031;28;20179;-78
2022/11/16 02:32:13;;;;;;;3.43;3.13;;;;;;;;;;4949498;28;20200;-78
2022/11/16 02:34:41;;;;;;;3.57;3.27;;;;;;;;;;4969740;28;20209;-78
2022/11/16 02:37:09;;;;;;;3.80;3.17;;;;;;;;;;4951927;28;20173;-78
2022/11/16 02:39:35;;;;;;;3.47;3.20;;;;;;;;;;4950991;28;20266;-78
2022/11/16 02:42:01;;;;;;;3.10;2.80;;;;;;;;;;4953538;28;20264;-78
2022/11/16 02:44:34;;;;;;;3.10;2.80;;;;;;;;;;4968276;28;20345;-78
2022/11/16 02:47:03;;;;;;;5.27;3.10;;;;;;;;;;4953571;28;20181;-78
2022/11/16 02:49:30;;;;;;;2.70;2.50;;;;;;;;;;4951981;28;20178;-78
2022/11/16 02:51:56;;;;;;;2.97;2.70;;;;;;;;;;4955220;28;20217;-78
2022/11/16 02:54:23;;;;;;;2.53;2.33;;;;;;;;;;4954315;28;20562;-78
2022/11/16 02:57:00;;;;;;;3.17;2.80;;;;;;;;;;4952400;28;20181;-78
2022/11/16 02:59:32;;;;;;;3.27;2.10;;;;;;;;;;4967327;28;20174;-78
2022/11/16 03:02:00;;;;;;;2.00;1.87;;;;;;;;;;4953460;28;20180;-77
2022/11/16 03:04:28;;;;;;;2.20;2.00;;;;;;;;;;4954070;28;21137;-77
2022/11/16 03:06:55;;;;;;;2.43;2.20;;;;;;;;;;4967882;28;20182;-78
2022/11/16 03:09:23;;;;;;;1.93;1.77;;;;;;;;;;4951996;28;20262;-78
2022/11/16 03:11:59;;;;;;;2.33;2.07;;;;;;;;;;4955215;28;20222;-78
2022/11/16 03:14:27;;;;;;;2.83;1.63;;;;;;;;;;4968105;28;20208;-79
2022/11/16 03:16:55;;;;;;;1.70;1.60;;;;;;;;;;4956750;28;20183;-78
2022/11/16 03:19:24;;;;;;;2.63;2.00;;;;;;;;;;4953753;28;20276;-78
2022/11/16 03:22:19;;;;;;;2.13;1.93;;;;;;;;;;4950898;28;21336;-78
2022/11/16 03:24:44;;;;;;;1.70;1.60;;;;;;;;;;4951356;28;20204;-78
2022/11/16 03:27:20;;;;;;;2.43;1.93;;;;;;;;;;4953419;28;20200;-78
2022/11/16 03:29:48;;;;;;;1.83;1.73;;;;;;;;;;4953103;28;20189;-78
2022/11/16 03:32:17;;;;;;;1.77;1.67;;;;;;;;;;4952234;28;20182;-78
2022/11/16 03:34:46;;;;;;;1.60;1.50;;;;;;;;;;4953082;28;20209;-77
2022/11/16 03:37:11;;;;;;;1.60;1.50;;;;;;;;;;4952625;28;20186;-77
2022/11/16 03:39:38;;;;;;;0.93;0.93;;;;;;;;;;4951050;28;20178;-77
2022/11/16 03:42:06;;;;;;;1.00;1.00;;;;;;;;;;4952690;28;20178;-78
2022/11/16 03:44:31;;;;;;;1.00;0.90;;;;;;;;;;4957631;28;20272;-77
2022/11/16 03:46:57;;;;;;;0.90;0.90;;;;;;;;;;4963819;28;20178;-77
2022/11/16 03:49:22;;;;;;;1.70;0.80;;;;;;;;;;4966136;28;20200;-77
2022/11/16 03:51:48;;;;;;;1.73;1.00;;;;;;;;;;4952500;28;20185;-78
2022/11/16 03:54:13;;;;;;;0.70;0.70;;;;;;;;;;4965739;28;20210;-77
2022/11/16 03:56:38;;;;;;;0.60;0.60;;;;;;;;;;4951997;28;20272;-77
2022/11/16 03:59:04;;;;;;;1.13;1.00;;;;;;;;;;4952651;28;20231;-77
2022/11/16 04:01:29;;;;;;;2.33;0.87;;;;;;;;;;4949873;28;20181;-77
2022/11/16 04:03:54;;;;;;;0.90;0.90;;;;;;;;;;4953515;28;20209;-77
2022/11/16 04:25:36;;;;;;;0.80;0.80;;;;;;;;;;4950198;28;20208;-77
2022/11/16 04:28:15;;;;;;;0.80;0.77;;;;;;;;;;4947851;28;20204;-77
2022/11/16 04:38:52;;;;;;;1.23;0.60;;;;;;;;;;4953336;29;20532;-77
2022/11/16 04:44:01;;;;;;;0.80;0.80;;;;;;;;;;4952223;28;20223;-77
2022/11/16 04:49:10;;;;;;;0.70;0.70;;;;;;;;;;4950572;28;20200;-77
2022/11/16 04:51:36;;;;;;;0.80;0.80;;;;;;;;;;4950143;28;20218;-77
2022/11/16 04:54:01;;;;;;;0.60;0.60;;;;;;;;;;4950352;28;20300;-77
2022/11/16 04:56:26;;;;;;;0.70;0.60;;;;;;;;;;4951144;29;20170;-77
2022/11/16 04:58:51;;;;;;;0.37;0.37;;;;;;;;;;4953300;28;20185;-77
2022/11/16 05:01:16;;;;;;;0.60;0.60;;;;;;;;;;4951597;28;20190;-77
2022/11/16 05:03:41;;;;;;;0.60;0.60;;;;;;;;;;4954051;28;20194;-77
2022/11/16 05:06:07;;;;;;;1.57;0.57;;;;;;;;;;4945981;28;20257;-77
2022/11/16 05:08:32;;;;;;;0.83;0.83;;;;;;;;;;4954668;28;20226;-78
2022/11/16 05:10:57;;;;;;;0.90;0.47;;;;;;;;;;4941880;28;20182;-77
2022/11/16 05:13:22;;;;;;;0.70;0.70;;;;;;;;;;4964360;28;20304;-77
2022/11/16 05:15:48;;;;;;;1.50;1.00;;;;;;;;;;4949966;28;20189;-77
2022/11/16 05:18:13;;;;;;;0.83;0.83;;;;;;;;;;4952806;28;20248;-78
2022/11/16 05:26:23;;;;;;;1.20;1.10;;;;;;;;;;4965667;28;20199;-77
2022/11/16 05:28:48;;;;;;;1.87;1.77;;;;;;;;;;4966069;28;20268;-78
2022/11/16 05:31:13;;;;;;;1.63;1.33;;;;;;;;;;4956222;28;20192;-77
2022/11/16 05:33:38;;;;;;;0.80;0.80;;;;;;;;;;4956459;28;20203;-77
2022/11/16 05:36:04;;;;;;;1.47;1.37;;;;;;;;;;4967689;28;20197;-77
2022/11/16 05:38:29;;;;;;;3.03;2.27;;;;;;;;;;4967937;28;20191;-77
2022/11/16 05:40:54;;;;;;;7.50;6.80;;;;;;;;;;4952611;28;20232;-77
2022/11/16 05:43:19;;;;;;;7.37;6.63;;;;;;;;;;4956216;28;20226;-77
2022/11/16 05:45:44;;;;;;;3.83;3.43;;;;;;;;;;4949065;28;20208;-77
2022/11/16 05:48:09;;;;;;;8.23;7.53;;;;;;;;;;4953068;28;20190;-77
2022/11/16 05:50:35;;;;;;;2.03;1.90;;;;;;;;;;4972526;28;20335;-77
2022/11/16 05:53:00;;;;;;;3.83;3.53;;;;;;;;;;4955874;28;20173;-77
2022/11/16 05:55:25;;;;;;;2.83;2.57;;;;;;;;;;4973824;28;20300;-77
2022/11/16 05:57:50;;;;;;;3.73;3.43;;;;;;;;;;4958507;28;20240;-77
2022/11/16 06:00:16;;;;;;;1.63;1.30;;;;;;;;;;4952669;28;20188;-77
2022/11/16 06:02:41;;;;;;;1.20;1.10;;;;;;;;;;4951278;28;20189;-77
2022/11/16 06:05:06;;;;;;;1.50;1.40;;;;;;;;;;4955442;28;20193;-77
2022/11/16 06:07:32;;;;;;;1.30;1.20;;;;;;;;;;4948272;28;20233;-77
2022/11/16 06:09:58;;;;;;;1.23;1.13;;;;;;;;;;4953516;28;20186;-77
2022/11/16 06:12:23;;;;;;;0.90;0.90;;;;;;;;;;4956162;28;20230;-78
2022/11/16 06:14:48;;;;;;;1.30;1.20;;;;;;;;;;4970827;28;20332;-77
2022/11/16 06:17:13;;;;;;;0.90;0.90;;;;;;;;;;4952995;28;20184;-77
2022/11/16 06:19:39;;;;;;;2.03;1.00;;;;;;;;;;4951415;28;20269;-77
2022/11/16 06:22:05;;;;;;;1.57;0.90;;;;;;;;;;4953223;28;20213;-77
2022/11/16 06:24:30;;;;;;;1.20;0.70;;;;;;;;;;4966631;28;20187;-77
2022/11/16 06:26:55;;;;;;;1.03;0.80;;;;;;;;;;4954225;28;20181;-77
2022/11/16 06:29:20;;;;;;;0.97;0.90;;;;;;;;;;4949739;28;20181;-77
2022/11/16 06:31:46;;;;;;;1.53;1.00;;;;;;;;;;4968801;28;20447;-77
2022/11/16 06:34:11;;;;;;;0.93;0.73;;;;;;;;;;4955034;28;20201;-77
2022/11/16 06:36:36;;;;;;;2.63;0.70;;;;;;;;;;4965851;28;20213;-77
2022/11/16 06:39:01;;;;;;;2.13;1.30;;;;;;;;;;4952510;28;20190;-77
2022/11/16 06:41:27;;;;;;;6.37;1.50;;;;;;;;;;4947526;28;20185;-78
2022/11/16 06:43:52;;;;;;;4.23;2.07;;;;;;;;;;4946797;28;20280;-77
2022/11/16 06:46:17;;;;;;;0.93;0.87;;;;;;;;;;4949530;28;20316;-77
2022/11/16 06:48:42;;;;;;;4.80;3.73;;;;;;;;;;4951832;28;20205;-77
2022/11/16 06:51:07;;;;;;;4.43;1.60;;;;;;;;;;4948511;28;20221;-78
2022/11/16 06:53:33;;;;;;;2.97;2.13;;;;;;;;;;4951805;28;20229;-78
2022/11/16 06:56:04;;;;;;;2.33;1.53;;;;;;;;;;4949299;28;20209;-78
2022/11/16 06:58:30;;;;;;;2.80;1.43;;;;;;;;;;4949687;28;20224;-78
2022/11/16 07:00:56;;;;;;;1.60;1.07;;;;;;;;;;4965036;28;20205;-78
2022/11/16 07:03:21;;;;;;;1.87;1.50;;;;;;;;;;4952778;28;20251;-78
2022/11/16 07:05:46;;;;;;;1.60;1.20;;;;;;;;;;4950145;28;20228;-78
2022/11/16 07:08:12;;;;;;;3.33;1.83;;;;;;;;;;4966409;28;20255;-77
2022/11/16 07:10:37;;;;;;;1.80;1.30;;;;;;;;;;4949316;28;20174;-78
2022/11/16 07:13:03;;;;;;;2.90;1.57;;;;;;;;;;4969623;28;20174;-78
2022/11/16 07:15:28;;;;;;;2.50;2.27;;;;;;;;;;4949075;28;20239;-78
2022/11/16 07:17:53;;;;;;;4.47;2.90;;;;;;;;;;4950873;28;20184;-78
2022/11/16 07:20:19;;;;;;;2.63;2.37;;;;;;;;;;4945536;28;20232;-77
2022/11/16 07:22:44;;;;;;;5.17;2.90;;;;;;;;;;4951562;28;20182;-78
2022/11/16 07:25:10;;;;;;;4.83;2.10;;;;;;;;;;4950989;28;20251;-78
2022/11/16 07:27:35;;;;;;;6.30;4.40;;;;;;;;;;4943790;28;20177;-78
2022/11/16 07:30:00;;;;;;;6.07;2.63;;;;;;;;;;4949446;28;20189;-78
2022/11/16 07:32:27;;;;;;;2.43;1.60;;;;;;;;;;4965352;28;20197;-77
2022/11/16 07:34:52;;;;;;;3.63;1.83;;;;;;;;;;4952683;28;20572;-77
2022/11/16 07:37:17;;;;;;;2.33;1.60;;;;;;;;;;4950718;28;20190;-77
2022/11/16 07:39:42;;;;;;;5.43;1.50;;;;;;;;;;4968159;28;20325;-77
2022/11/16 07:42:10;;;;;;;3.67;1.87;;;;;;;;;;4952608;28;20182;-77
2022/11/16 07:44:35;;;;;;;1.93;1.30;;;;;;;;;;4952204;28;20263;-77
2022/11/16 07:47:01;;;;;;;4.53;1.50;;;;;;;;;;4952568;28;20248;-77
2022/11/16 07:49:26;;;;;;;3.33;1.13;;;;;;;;;;4953269;28;20236;-77
2022/11/16 07:51:52;;;;;;;1.83;1.47;;;;;;;;;;4953514;28;20185;-77
2022/11/16 07:54:17;;;;;;;4.33;1.77;;;;;;;;;;4953728;28;20529;-77
2022/11/16 07:56:42;;;;;;;2.17;1.50;;;;;;;;;;4952178;28;20175;-77
2022/11/16 07:59:07;;;;;;;2.80;1.87;;;;;;;;;;4967839;28;20181;-77
2022/11/16 08:01:33;;;;;;;2.77;2.50;;;;;;;;;;4953944;28;20174;-77
2022/11/16 08:04:00;;;;;;;1.93;1.50;;;;;;;;;;4950971;28;20197;-77
2022/11/16 08:06:26;;;;;;;3.80;1.30;;;;;;;;;;4966330;28;20192;-77
2022/11/16 08:08:52;;;;;;;1.73;1.20;;;;;;;;;;4952165;28;20233;-77
2022/11/16 08:11:17;;;;;;;2.70;1.57;;;;;;;;;;4952620;28;20185;-77
2022/11/16 08:13:43;;;;;;;5.77;1.67;;;;;;;;;;4953407;28;20212;-77
2022/11/16 08:16:08;;;;;;;2.20;1.33;;;;;;;;;;4968068;28;20192;-77
2022/11/16 08:18:34;;;;;;;6.00;2.90;;;;;;;;;;4968397;28;20177;-77
2022/11/16 08:21:00;;;;;;;4.67;2.93;;;;;;;;;;4953757;28;20189;-77
2022/11/16 08:23:29;;;;;;;5.77;3.70;;;;;;;;;;4952687;28;20185;-77
2022/11/16 08:26:02;;;;;;;4.83;2.30;;;;;;;;;;4954580;28;20188;-77
2022/11/16 08:28:27;;;;;;;2.13;1.87;;;;;;;;;;4951811;28;20178;-77
2022/11/16 08:30:53;;;;;;;2.30;1.70;;;;;;;;;;4952023;28;20243;-76
2022/11/16 08:33:20;;;;;;;1.33;1.10;;;;;;;;;;4966446;28;20213;-77
2022/11/16 08:35:46;;;;;;;1.73;1.30;;;;;;;;;;4951588;28;20295;-77
2022/11/16 08:38:12;;;;;;;5.13;1.50;;;;;;;;;;4955973;28;20177;-77
2022/11/16 08:40:37;;;;;;;2.83;1.30;;;;;;;;;;4951756;28;20196;-77
2022/11/16 08:43:02;;;;;;;5.60;5.00;;;;;;;;;;4969395;28;20184;-77
2022/11/16 08:45:27;;;;;;;3.37;1.50;;;;;;;;;;4951903;28;20241;-77
2022/11/16 08:47:53;;;;;;;3.17;2.87;;;;;;;;;;4949946;28;20186;-77
2022/11/16 08:50:18;;;;;;;1.43;1.33;;;;;;;;;;4953043;28;20199;-77
2022/11/16 08:52:43;;;;;;;1.80;1.23;;;;;;;;;;4955259;28;20236;-78
2022/11/16 08:55:09;;;;;;;3.23;1.00;;;;;;;;;;4951508;28;20213;-77
2022/11/16 08:57:34;;;;;;;1.60;1.50;;;;;;;;;;4949745;28;20192;-77
2022/11/16 08:59:59;;;;;;;1.43;0.80;;;;;;;;;;4967763;28;20182;-77
2022/11/16 09:02:25;;;;;;;2.23;1.60;;;;;;;;;;4953523;28;20197;-77
2022/11/16 09:04:51;;;;;;;4.13;1.33;;;;;;;;;;4951478;28;20211;-77
2022/11/16 09:07:16;;;;;;;8.43;5.40;;;;;;;;;;4967245;28;20225;-77
2022/11/16 09:09:41;;;;;;;2.20;1.90;;;;;;;;;;4951068;28;20190;-77
2022/11/16 09:12:07;;;;;;;3.50;2.23;;;;;;;;;;4952343;28;20241;-77
2022/11/16 09:14:32;;;;;;;1.50;1.13;;;;;;;;;;4955238;28;20248;-77
2022/11/16 09:16:57;;;;;;;2.20;2.00;;;;;;;;;;4952269;28;20178;-77
2022/11/16 09:19:22;;;;;;;6.40;1.30;;;;;;;;;;4951945;28;20189;-77
2022/11/16 09:21:48;;;;;;;3.67;1.30;;;;;;;;;;4953150;28;20181;-77
2022/11/16 09:24:14;;;;;;;3.07;1.77;;;;;;;;;;4953882;28;20182;-77
2022/11/16 09:26:39;;;;;;;2.03;1.10;;;;;;;;;;4957706;28;20216;-78
2022/11/16 09:29:04;;;;;;;3.20;1.20;;;;;;;;;;4954842;28;20185;-77
2022/11/16 09:31:31;;;;;;;2.60;1.20;;;;;;;;;;4954882;28;20177;-77
2022/11/16 09:33:57;;;;;;;7.13;5.77;;;;;;;;;;4955903;28;20216;-77
2022/11/16 09:36:23;;;;;;;8.77;6.83;;;;;;;;;;4972573;28;20169;-77
2022/11/16 09:38:48;;;;;;;5.10;3.47;;;;;;;;;;4955963;28;20276;-77
2022/11/16 09:41:13;;;;;;;1.90;1.47;;;;;;;;;;4954256;28;20174;-77
2022/11/16 09:43:39;;;;;;;1.47;1.30;;;;;;;;;;4970572;28;20188;-77
2022/11/16 09:46:04;;;;;;;1.97;1.57;;;;;;;;;;4956542;28;20225;-77
2022/11/16 09:48:30;;;;;;;1.60;1.50;;;;;;;;;;4958165;28;20185;-77
2022/11/16 09:50:58;;;;;;;2.03;1.20;;;;;;;;;;4970447;28;20186;-77
2022/11/16 09:53:23;;;;;;;0.90;0.83;;;;;;;;;;4957046;28;20194;-77
2022/11/16 09:55:50;;;;;;;1.10;0.77;;;;;;;;;;4970544;28;20177;-76
2022/11/16 09:58:21;;;;;;;1.93;1.20;;;;;;;;;;4967368;28;20192;-78
2022/11/16 10:00:51;;;;;;;3.50;1.10;;;;;;;;;;4955700;28;20189;-77
2022/11/16 10:03:17;;;;;;;2.30;0.80;;;;;;;;;;4970905;28;20181;-77
2022/11/16 10:05:50;;;;;;;0.93;0.63;;;;;;;;;;4952899;28;20209;-78
2022/11/16 10:08:26;;;;;;;1.93;1.20;;;;;;;;;;4952111;28;20222;-77
2022/11/16 10:11:02;;;;;;;2.23;1.00;;;;;;;;;;4955096;28;20204;-77
2022/11/16 10:13:30;;;;;;;2.23;0.80;;;;;;;;;;4956618;28;20175;-77
2022/11/16 10:16:06;;;;;;;1.23;0.90;;;;;;;;;;4951819;28;20208;-77
2022/11/16 10:18:41;;;;;;;1.60;1.13;;;;;;;;;;4952994;28;20178;-77
2022/11/16 10:21:12;;;;;;;2.57;0.90;;;;;;;;;;4956485;28;20266;-77
2022/11/16 10:23:52;;;;;;;1.87;1.03;;;;;;;;;;4970739;28;20255;-77
2022/11/16 10:26:36;;;;;;;1.40;0.90;;;;;;;;;;4955496;28;20211;-77
2022/11/16 10:29:01;;;;;;;1.27;0.90;;;;;;;;;;4970711;28;20187;-77
2022/11/16 10:31:39;;;;;;;1.93;1.10;;;;;;;;;;4955437;28;20241;-77
2022/11/16 10:34:05;;;;;;;1.33;0.90;;;;;;;;;;4974102;28;20222;-77
2022/11/16 10:36:32;;;;;;;1.30;1.20;;;;;;;;;;4970852;28;20171;-77
2022/11/16 10:38:59;;;;;;;1.20;0.97;;;;;;;;;;4968633;28;20181;-78
2022/11/16 10:41:34;;;;;;;1.50;0.90;;;;;;;;;;4954882;28;20223;-78
2022/11/16 10:43:59;;;;;;;0.90;0.70;;;;;;;;;;4955156;28;20183;-77
2022/11/16 10:46:34;;;;;;;0.90;0.80;;;;;;;;;;4970899;28;20277;-77
2022/11/16 10:49:18;;;;;;;1.27;0.80;;;;;;;;;;4968464;28;20192;-77
2022/11/16 10:51:43;;;;;;;2.80;0.80;;;;;;;;;;4968374;28;20187;-77
2022/11/16 10:54:12;;;;;;;3.23;0.97;;;;;;;;;;4956191;28;20293;-77
2022/11/16 10:56:40;;;;;;;1.80;0.73;;;;;;;;;;4954463;28;20186;-78
2022/11/16 10:59:05;;;;;;;2.17;1.30;;;;;;;;;;4955551;28;20185;-77
2022/11/16 11:01:35;;;;;;;2.40;0.97;;;;;;;;;;4956858;28;20179;-77
2022/11/16 11:04:21;;;;;;;0.77;0.67;;;;;;;;;;4969925;28;20181;-77
2022/11/16 11:06:48;;;;;;;2.63;1.00;;;;;;;;;;4951220;28;20189;-77
2022/11/16 11:09:20;;;;;;;0.80;0.60;;;;;;;;;;4956196;28;20195;-78
2022/11/16 11:14:40;;;;;;;0.63;0.63;;;;;;;;;;4953083;28;20237;-78
2022/11/16 11:17:11;;;;;;;1.23;0.77;;;;;;;;;;4955315;28;20202;-78
2022/11/16 11:19:36;;;;;;;1.03;0.57;;;;;;;;;;4951490;28;20228;-77
2022/11/16 11:22:02;;;;;;;0.93;0.80;;;;;;;;;;4958227;28;20173;-78
2022/11/16 11:24:27;;;;;;;1.30;0.90;;;;;;;;;;4953862;28;20180;-77
2022/11/16 11:26:54;;;;;;;1.70;0.70;;;;;;;;;;4958044;28;20213;-78
2022/11/16 11:29:24;;;;;;;1.33;0.87;;;;;;;;;;4967276;28;20171;-78
2022/11/16 11:31:54;;;;;;;3.87;1.03;;;;;;;;;;4953293;28;20246;-77
2022/11/16 11:34:21;;;;;;;1.30;0.87;;;;;;;;;;4952974;28;20263;-77
2022/11/16 11:36:52;;;;;;;4.20;1.10;;;;;;;;;;4952320;28;20401;-78
2022/11/16 11:39:18;;;;;;;1.30;0.77;;;;;;;;;;4968711;28;20481;-78
2022/11/16 11:41:43;;;;;;;2.50;1.00;;;;;;;;;;4967904;28;20188;-78
2022/11/16 11:44:12;;;;;;;4.00;1.17;;;;;;;;;;4951672;28;20261;-78
2022/11/16 11:46:38;;;;;;;1.47;0.80;;;;;;;;;;4967987;28;20255;-77
2022/11/16 11:49:09;;;;;;;1.60;0.83;;;;;;;;;;4953757;28;20193;-77
2022/11/16 11:51:37;;;;;;;0.80;0.80;;;;;;;;;;4956754;28;20519;-77
2022/11/16 11:54:03;;;;;;;1.00;0.73;;;;;;;;;;4967014;28;20207;-77
2022/11/16 11:56:30;;;;;;;1.73;0.60;;;;;;;;;;4952445;28;20251;-78
2022/11/16 11:58:55;;;;;;;4.70;0.90;;;;;;;;;;4954358;28;20186;-77
2022/11/16 12:01:35;;;;;;;1.43;0.70;;;;;;;;;;4968424;28;20188;-77
2022/11/16 12:04:13;;;;;;;5.03;0.90;;;;;;;;;;4953750;28;20196;-77
2022/11/16 12:06:53;;;;;;;1.73;0.77;;;;;;;;;;4953124;28;20242;-77
2022/11/16 12:09:31;;;;;;;1.83;1.00;;;;;;;;;;4970651;28;20195;-78
2022/11/16 12:12:03;;;;;;;0.77;0.77;;;;;;;;;;4947673;28;20192;-78
2022/11/16 12:14:48;;;;;;;2.53;0.87;;;;;;;;;;4950881;28;20201;-78
2022/11/16 12:17:19;;;;;;;2.10;0.80;;;;;;;;;;4969886;28;20275;-77
2022/11/16 12:19:56;;;;;;;2.67;0.83;;;;;;;;;;4968419;28;20187;-78
2022/11/16 12:22:24;;;;;;;3.37;1.13;;;;;;;;;;4952728;28;20182;-78
2022/11/16 12:24:55;;;;;;;3.40;1.37;;;;;;;;;;4953549;28;20192;-78
2022/11/16 12:27:39;;;;;;;2.97;1.10;;;;;;;;;;4957910;28;20180;-78
2022/11/16 12:30:11;;;;;;;4.17;1.80;;;;;;;;;;4968419;28;20194;-78
2022/11/16 12:32:41;;;;;;;1.07;0.60;;;;;;;;;;4954803;28;20188;-77
2022/11/16 12:35:25;;;;;;;1.10;1.00;;;;;;;;;;4951280;28;20214;-77
2022/11/16 12:37:58;;;;;;;0.93;0.80;;;;;;;;;;4965869;28;20185;-77
2022/11/16 12:40:42;;;;;;;1.23;0.43;;;;;;;;;;4965397;28;20192;-77
2022/11/16 12:43:17;;;;;;;2.10;0.80;;;;;;;;;;4951839;28;20175;-78
2022/11/16 12:45:45;;;;;;;2.53;0.97;;;;;;;;;;4967972;28;20210;-78
2022/11/16 12:48:19;;;;;;;1.93;0.90;;;;;;;;;;4954375;28;20189;-77
2022/11/16 12:51:07;;;;;;;2.83;1.00;;;;;;;;;;4949220;28;20255;-78
2022/11/16 12:54:05;;;;;;;2.53;0.87;;;;;;;;;;4946943;28;20189;-78
2022/11/16 12:56:39;;;;;;;1.10;1.00;;;;;;;;;;4959799;28;20184;-78
2022/11/16 12:59:23;;;;;;;1.67;1.00;;;;;;;;;;4970995;28;20188;-78
2022/11/16 13:02:02;;;;;;;3.30;1.00;;;;;;;;;;4972911;28;20185;-78
2022/11/16 13:04:31;;;;;;;9.03;0.80;;;;;;;;;;4958295;28;20184;-77
2022/11/16 13:07:03;;;;;;;1.10;0.90;;;;;;;;;;4959590;28;20184;-77
2022/11/16 13:09:31;;;;;;;1.80;0.90;;;;;;;;;;4958121;28;20216;-78
2022/11/16 13:11:59;;;;;;;5.40;1.30;;;;;;;;;;4957048;28;20188;-78
2022/11/16 13:14:36;;;;;;;2.83;1.50;;;;;;;;;;4960508;28;20254;-78
2022/11/16 13:17:02;;;;;;;0.63;0.63;;;;;;;;;;4961247;28;20204;-78
2022/11/16 13:19:28;;;;;;;1.70;1.10;;;;;;;;;;4956597;28;20211;-78
2022/11/16 13:21:58;;;;;;;2.07;0.90;;;;;;;;;;4962711;28;20210;-78
2022/11/16 13:24:43;;;;;;;3.40;1.07;;;;;;;;;;4973626;28;20192;-78
2022/11/16 13:27:08;;;;;;;1.10;1.00;;;;;;;;;;4979422;28;20192;-78
2022/11/16 13:29:41;;;;;;;1.80;1.10;;;;;;;;;;4974000;28;20200;-78
2022/11/16 13:32:16;;;;;;;1.37;1.20;;;;;;;;;;4954758;28;20238;-75
2022/11/16 13:34:42;;;;;;;2.90;1.10;;;;;;;;;;4949785;28;20208;-76
2022/11/16 13:37:26;;;;;;;2.23;1.10;;;;;;;;;;4953148;28;20181;-76
2022/11/16 13:39:57;;;;;;;1.80;1.00;;;;;;;;;;4968094;28;20185;-76
2022/11/16 13:42:23;;;;;;;5.23;0.90;;;;;;;;;;4952797;28;20272;-76
2022/11/16 13:44:48;;;;;;;1.20;0.87;;;;;;;;;;4954993;28;20284;-75
2022/11/16 13:47:21;;;;;;;1.93;0.80;;;;;;;;;;4952093;28;21483;-76
2022/11/16 13:49:49;;;;;;;2.23;0.90;;;;;;;;;;4955846;28;20188;-76
2022/11/16 13:52:14;;;;;;;3.00;0.97;;;;;;;;;;4971434;28;20181;-76
2022/11/16 13:54:45;;;;;;;1.70;0.80;;;;;;;;;;4951818;28;20208;-76
2022/11/16 13:57:28;;;;;;;2.53;1.10;;;;;;;;;;4953876;28;20189;-76
2022/11/16 13:59:59;;;;;;;7.67;3.40;;;;;;;;;;4971359;28;20181;-76
2022/11/16 14:02:27;;;;;;;2.20;1.20;;;;;;;;;;4956099;28;20185;-76
2022/11/16 14:04:54;;;;;;;2.63;1.00;;;;;;;;;;4972090;28;20252;-76
2022/11/16 14:07:48;;;;;;;1.93;1.07;;;;;;;;;;4956155;28;20230;-76
2022/11/16 14:10:32;;;;;;;2.90;1.10;;;;;;;;;;4961632;28;20197;-76
2022/11/16 14:12:58;;;;;;;2.77;1.03;;;;;;;;;;4953548;28;20184;-76
2022/11/16 14:15:24;;;;;;;2.17;1.00;;;;;;;;;;4953616;28;20240;-75
2022/11/16 14:17:56;;;;;;;2.87;1.47;;;;;;;;;;4953899;28;20679;-76
2022/11/16 14:20:37;;;;;;;2.93;1.27;;;;;;;;;;4954023;28;20183;-76
2022/11/16 14:23:08;;;;;;;2.57;1.13;;;;;;;;;;4969152;28;20178;-76
2022/11/16 14:25:51;;;;;;;1.83;1.10;;;;;;;;;;4952629;28;20196;-76
2022/11/16 14:28:29;;;;;;;1.90;1.20;;;;;;;;;;4967561;28;20186;-76
2022/11/16 14:31:06;;;;;;;1.77;0.80;;;;;;;;;;4954120;28;20199;-76
2022/11/16 14:33:32;;;;;;;2.83;1.07;;;;;;;;;;4969898;28;20184;-75
2022/11/16 14:35:58;;;;;;;2.90;0.90;;;;;;;;;;4953710;28;20232;-76
2022/11/16 14:38:35;;;;;;;1.87;1.57;;;;;;;;;;4954065;28;20236;-76
2022/11/16 14:41:02;;;;;;;3.30;0.90;;;;;;;;;;4953461;28;20201;-76
2022/11/16 14:43:30;;;;;;;2.20;1.67;;;;;;;;;;4955325;28;20177;-76
2022/11/16 14:46:04;;;;;;;2.50;1.17;;;;;;;;;;4953431;28;20241;-75
2022/11/16 14:48:29;;;;;;;3.03;1.27;;;;;;;;;;4951480;28;20519;-76
2022/11/16 14:51:03;;;;;;;1.23;1.07;;;;;;;;;;4969269;28;20193;-76
2022/11/16 14:53:29;;;;;;;3.87;1.23;;;;;;;;;;4954109;28;20189;-76
2022/11/16 14:56:04;;;;;;;3.50;1.47;;;;;;;;;;4953730;28;20193;-76
2022/11/16 14:58:30;;;;;;;2.53;1.10;;;;;;;;;;4955626;28;20302;-75
2022/11/16 15:00:56;;;;;;;2.60;1.57;;;;;;;;;;4952931;28;20225;-76
2022/11/16 15:03:22;;;;;;;3.00;1.60;;;;;;;;;;4951455;28;20183;-76
2022/11/16 15:05:48;;;;;;;2.83;1.50;;;;;;;;;;4951935;28;20261;-76
2022/11/16 15:08:18;;;;;;;4.10;1.87;;;;;;;;;;4953623;28;20240;-76
2022/11/16 15:10:45;;;;;;;2.57;1.20;;;;;;;;;;4955031;28;20197;-76
2022/11/16 15:13:15;;;;;;;3.07;1.40;;;;;;;;;;4969977;28;20253;-76
2022/11/16 15:15:43;;;;;;;4.67;1.20;;;;;;;;;;4949070;28;20233;-76
2022/11/16 15:18:11;;;;;;;5.03;3.17;;;;;;;;;;4954286;28;20185;-76
2022/11/16 15:20:45;;;;;;;2.97;2.13;;;;;;;;;;4952357;28;20178;-75
2022/11/16 15:23:12;;;;;;;3.20;2.77;;;;;;;;;;4951957;29;20189;-75
2022/11/16 15:25:43;;;;;;;4.17;2.60;;;;;;;;;;4971950;28;20195;-76
2022/11/16 15:28:13;;;;;;;5.50;3.43;;;;;;;;;;4953731;28;20189;-76
2022/11/16 15:30:39;;;;;;;4.17;1.43;;;;;;;;;;4949019;28;20185;-76
2022/11/16 15:33:09;;;;;;;1.33;1.13;;;;;;;;;;4954585;28;20247;-76
2022/11/16 15:35:35;;;;;;;2.83;1.20;;;;;;;;;;4950759;28;20287;-76
2022/11/16 15:38:01;;;;;;;4.90;1.30;;;;;;;;;;4952649;28;20238;-76